Terminal Aerodrome Forecast
Issued by NWS Wilmington, OH

Current Version | Previous Version | Text Only | Print | Product List | Glossary Off
Versions: 1 2 3 4 5 6 7 8 9 10 11 12 13 14 15 16 17 18

083
FTUS41 KILN 180903 AAA
TAFCMH
TAF AMD
KCMH 180903Z 1809/1906 00000KT P6SM FEW070 BKN250
     FM181500 18004KT P6SM FEW090 BKN250
     FM190000 00000KT P6SM SCT090 BKN250=

USA.gov is the U.S. government's official web portal to all federal, state and local government web resources and services.